Arriba, Colorado
Current Conditions -  °F | °C
As of 7:55 PM on Friday 21 Nov 2014 (Local Time) from KLIC Reporting Station
Clear Clear  
Wind Chill: 15°   Ceiling: Unl
Heat Index: 23°   Visibility: 10mi
Dew Point: 16°   Wind: 7mph
Humidity: 74%   Direction: 350°N
Pressure: 29.99"   Gusts: NA
Location:  39.29°N, 103.28°W
Report Text: KLIC 220255Z AUTO 35006KT 10SM CLR M05/M09 A2999 RMK AO2 SLP185 T10501089 51013
Loading
Personal Weather Stations






























Interactive Weather Map New forecast layout! Learn more

10-Day Weather Forecast

Advertisements
Track Severe Weather on mobile